sensor_id;sensor_type;location;lat;lon;timestamp;P1;durP1;ratioP1;P2;durP2;ratioP2
26951;SDS011;14507;52.418;13.398;2023-02-01T00:01:26;33.10;;;4.72;;
26951;SDS011;14507;52.418;13.398;2023-02-01T00:03:52;38.70;;;4.93;;
26951;SDS011;14507;52.418;13.398;2023-02-01T00:06:17;25.40;;;4.20;;
26951;SDS011;14507;52.418;13.398;2023-02-01T00:08:43;40.42;;;5.13;;
26951;SDS011;14507;52.418;13.398;2023-02-01T00:11:10;35.53;;;4.97;;
26951;SDS011;14507;52.418;13.398;2023-02-01T00:13:38;37.67;;;4.60;;
26951;SDS011;14507;52.418;13.398;2023-02-01T00:16:07;22.20;;;4.20;;
26951;SDS011;14507;52.418;13.398;2023-02-01T00:18:34;34.97;;;5.57;;
26951;SDS011;14507;52.418;13.398;2023-02-01T00:21:00;29.98;;;4.78;;
26951;SDS011;14507;52.418;13.398;2023-02-01T00:23:26;26.85;;;3.97;;
26951;SDS011;14507;52.418;13.398;2023-02-01T00:25:52;30.25;;;3.90;;
26951;SDS011;14507;52.418;13.398;2023-02-01T00:28:18;33.60;;;5.05;;
26951;SDS011;14507;52.418;13.398;2023-02-01T00:30:44;26.83;;;4.97;;
26951;SDS011;14507;52.418;13.398;2023-02-01T00:33:09;32.33;;;4.60;;
26951;SDS011;14507;52.418;13.398;2023-02-01T00:35:35;40.38;;;4.18;;
26951;SDS011;14507;52.418;13.398;2023-02-01T00:38:01;34.58;;;4.63;;
26951;SDS011;14507;52.418;13.398;2023-02-01T00:40:26;21.15;;;4.32;;
26951;SDS011;14507;52.418;13.398;2023-02-01T00:42:52;25.60;;;4.82;;
26951;SDS011;14507;52.418;13.398;2023-02-01T00:45:18;28.42;;;4.28;;
26951;SDS011;14507;52.418;13.398;2023-02-01T00:47:44;22.30;;;3.67;;
26951;SDS011;14507;52.418;13.398;2023-02-01T00:50:10;27.73;;;4.10;;
26951;SDS011;14507;52.418;13.398;2023-02-01T00:52:36;21.23;;;3.67;;
26951;SDS011;14507;52.418;13.398;2023-02-01T00:55:02;26.52;;;4.15;;
26951;SDS011;14507;52.418;13.398;2023-02-01T00:57:27;21.38;;;3.92;;
26951;SDS011;14507;52.418;13.398;2023-02-01T00:59:53;28.98;;;3.97;;
26951;SDS011;14507;52.418;13.398;2023-02-01T01:02:19;14.63;;;3.20;;
26951;SDS011;14507;52.418;13.398;2023-02-01T01:04:44;29.13;;;4.15;;
26951;SDS011;14507;52.418;13.398;2023-02-01T01:07:10;21.63;;;4.18;;
26951;SDS011;14507;52.418;13.398;2023-02-01T01:09:35;27.45;;;3.95;;
26951;SDS011;14507;52.418;13.398;2023-02-01T01:12:01;20.38;;;4.10;;
26951;SDS011;14507;52.418;13.398;2023-02-01T01:14:30;19.35;;;3.50;;
26951;SDS011;14507;52.418;13.398;2023-02-01T01:16:57;27.95;;;3.35;;
26951;SDS011;14507;52.418;13.398;2023-02-01T01:19:23;15.65;;;3.10;;
26951;SDS011;14507;52.418;13.398;2023-02-01T01:21:48;24.90;;;3.90;;
26951;SDS011;14507;52.418;13.398;2023-02-01T01:24:14;20.88;;;3.10;;
26951;SDS011;14507;52.418;13.398;2023-02-01T01:26:40;19.52;;;3.25;;
26951;SDS011;14507;52.418;13.398;2023-02-01T01:29:05;26.17;;;3.85;;
26951;SDS011;14507;52.418;13.398;2023-02-01T01:31:31;23.27;;;3.20;;
26951;SDS011;14507;52.418;13.398;2023-02-01T01:33:58;23.85;;;3.28;;
26951;SDS011;14507;52.418;13.398;2023-02-01T01:36:25;20.77;;;3.77;;
26951;SDS011;14507;52.418;13.398;2023-02-01T01:38:51;21.02;;;3.75;;
26951;SDS011;14507;52.418;13.398;2023-02-01T01:41:18;25.73;;;4.28;;
26951;SDS011;14507;52.418;13.398;2023-02-01T01:43:53;27.05;;;3.53;;
26951;SDS011;14507;52.418;13.398;2023-02-01T01:46:33;37.00;;;4.35;;
26951;SDS011;14507;52.418;13.398;2023-02-01T01:49:22;23.45;;;3.42;;
26951;SDS011;14507;52.418;13.398;2023-02-01T01:51:49;30.25;;;4.55;;
26951;SDS011;14507;52.418;13.398;2023-02-01T01:54:20;28.88;;;4.25;;
26951;SDS011;14507;52.418;13.398;2023-02-01T01:56:51;27.83;;;3.30;;
26951;SDS011;14507;52.418;13.398;2023-02-01T01:59:22;26.25;;;3.97;;
26951;SDS011;14507;52.418;13.398;2023-02-01T02:01:49;22.35;;;3.72;;
26951;SDS011;14507;52.418;13.398;2023-02-01T02:04:16;25.15;;;3.90;;
26951;SDS011;14507;52.418;13.398;2023-02-01T02:06:43;25.23;;;3.65;;
26951;SDS011;14507;52.418;13.398;2023-02-01T02:09:13;32.08;;;5.10;;
26951;SDS011;14507;52.418;13.398;2023-02-01T02:11:39;20.75;;;3.95;;
26951;SDS011;14507;52.418;13.398;2023-02-01T02:14:06;20.45;;;3.75;;
26951;SDS011;14507;52.418;13.398;2023-02-01T02:25:12;23.52;;;4.20;;
26951;SDS011;14507;52.418;13.398;2023-02-01T02:30:40;28.67;;;4.15;;
26951;SDS011;14507;52.418;13.398;2023-02-01T02:36:25;31.65;;;4.00;;
26951;SDS011;14507;52.418;13.398;2023-02-01T02:42:10;24.65;;;4.18;;
26951;SDS011;14507;52.418;13.398;2023-02-01T02:50:37;30.13;;;4.65;;
26951;SDS011;14507;52.418;13.398;2023-02-01T02:56:36;24.08;;;3.85;;
26951;SDS011;14507;52.418;13.398;2023-02-01T02:59:23;28.70;;;4.40;;
26951;SDS011;14507;52.418;13.398;2023-02-01T03:02:09;25.65;;;3.80;;
26951;SDS011;14507;52.418;13.398;2023-02-01T03:04:54;30.60;;;4.50;;
26951;SDS011;14507;52.418;13.398;2023-02-01T03:10:17;33.25;;;4.85;;
26951;SDS011;14507;52.418;13.398;2023-02-01T03:12:49;28.80;;;3.97;;
26951;SDS011;14507;52.418;13.398;2023-02-01T03:15:23;38.05;;;5.00;;
26951;SDS011;14507;52.418;13.398;2023-02-01T03:20:26;36.63;;;4.28;;
26951;SDS011;14507;52.418;13.398;2023-02-01T03:22:54;35.03;;;4.10;;
26951;SDS011;14507;52.418;13.398;2023-02-01T03:25:23;32.58;;;4.32;;
26951;SDS011;14507;52.418;13.398;2023-02-01T03:28:03;21.27;;;3.70;;
26951;SDS011;14507;52.418;13.398;2023-02-01T03:30:32;30.90;;;4.38;;
26951;SDS011;14507;52.418;13.398;2023-02-01T03:33:03;35.92;;;4.60;;
26951;SDS011;14507;52.418;13.398;2023-02-01T03:35:39;28.77;;;3.85;;
26951;SDS011;14507;52.418;13.398;2023-02-01T03:41:02;24.83;;;4.05;;
26951;SDS011;14507;52.418;13.398;2023-02-01T03:43:34;28.80;;;4.50;;
26951;SDS011;14507;52.418;13.398;2023-02-01T03:46:43;31.17;;;4.97;;
26951;SDS011;14507;52.418;13.398;2023-02-01T03:49:11;24.40;;;4.75;;
26951;SDS011;14507;52.418;13.398;2023-02-01T03:51:43;18.10;;;3.50;;
26951;SDS011;14507;52.418;13.398;2023-02-01T03:54:12;28.23;;;4.05;;
26951;SDS011;14507;52.418;13.398;2023-02-01T03:56:40;33.72;;;4.60;;
26951;SDS011;14507;52.418;13.398;2023-02-01T03:59:09;34.15;;;3.72;;
26951;SDS011;14507;52.418;13.398;2023-02-01T04:01:36;28.70;;;4.15;;
26951;SDS011;14507;52.418;13.398;2023-02-01T04:04:01;30.88;;;4.95;;
26951;SDS011;14507;52.418;13.398;2023-02-01T04:06:27;31.90;;;3.63;;
26951;SDS011;14507;52.418;13.398;2023-02-01T04:08:53;32.03;;;4.07;;
26951;SDS011;14507;52.418;13.398;2023-02-01T04:11:18;23.00;;;3.72;;
26951;SDS011;14507;52.418;13.398;2023-02-01T04:13:44;27.00;;;4.13;;
26951;SDS011;14507;52.418;13.398;2023-02-01T04:16:10;22.40;;;4.60;;
26951;SDS011;14507;52.418;13.398;2023-02-01T04:18:36;29.30;;;4.18;;
26951;SDS011;14507;52.418;13.398;2023-02-01T04:21:01;31.02;;;3.95;;
26951;SDS011;14507;52.418;13.398;2023-02-01T04:23:28;25.95;;;3.90;;
26951;SDS011;14507;52.418;13.398;2023-02-01T04:25:58;32.58;;;5.43;;
26951;SDS011;14507;52.418;13.398;2023-02-01T04:28:24;30.17;;;4.88;;
26951;SDS011;14507;52.418;13.398;2023-02-01T04:30:49;31.67;;;4.88;;
26951;SDS011;14507;52.418;13.398;2023-02-01T04:33:15;28.60;;;3.55;;
26951;SDS011;14507;52.418;13.398;2023-02-01T04:35:41;33.75;;;4.57;;
26951;SDS011;14507;52.418;13.398;2023-02-01T04:38:06;23.75;;;4.38;;
26951;SDS011;14507;52.418;13.398;2023-02-01T04:40:32;29.25;;;3.83;;
26951;SDS011;14507;52.418;13.398;2023-02-01T04:42:58;35.15;;;4.50;;
26951;SDS011;14507;52.418;13.398;2023-02-01T04:45:25;30.45;;;5.07;;
26951;SDS011;14507;52.418;13.398;2023-02-01T04:47:51;30.92;;;3.40;;
26951;SDS011;14507;52.418;13.398;2023-02-01T04:50:16;27.90;;;3.92;;
26951;SDS011;14507;52.418;13.398;2023-02-01T04:52:42;32.38;;;4.82;;
26951;SDS011;14507;52.418;13.398;2023-02-01T04:55:10;23.38;;;3.80;;
26951;SDS011;14507;52.418;13.398;2023-02-01T04:57:38;29.55;;;4.03;;
26951;SDS011;14507;52.418;13.398;2023-02-01T05:00:05;26.95;;;4.28;;
26951;SDS011;14507;52.418;13.398;2023-02-01T05:02:33;25.70;;;3.40;;
26951;SDS011;14507;52.418;13.398;2023-02-01T05:04:58;28.25;;;3.85;;
26951;SDS011;14507;52.418;13.398;2023-02-01T05:07:24;27.17;;;4.07;;
26951;SDS011;14507;52.418;13.398;2023-02-01T05:09:49;38.38;;;4.63;;
26951;SDS011;14507;52.418;13.398;2023-02-01T05:12:16;28.17;;;4.07;;
26951;SDS011;14507;52.418;13.398;2023-02-01T05:14:59;29.05;;;4.28;;
26951;SDS011;14507;52.418;13.398;2023-02-01T05:17:25;29.55;;;4.15;;
26951;SDS011;14507;52.418;13.398;2023-02-01T05:19:51;26.10;;;4.07;;
26951;SDS011;14507;52.418;13.398;2023-02-01T05:22:16;34.67;;;4.40;;
26951;SDS011;14507;52.418;13.398;2023-02-01T05:24:42;32.42;;;3.83;;
26951;SDS011;14507;52.418;13.398;2023-02-01T05:27:08;36.55;;;5.18;;
26951;SDS011;14507;52.418;13.398;2023-02-01T05:29:34;29.58;;;4.15;;
26951;SDS011;14507;52.418;13.398;2023-02-01T05:31:59;26.88;;;4.38;;
26951;SDS011;14507;52.418;13.398;2023-02-01T05:34:25;35.33;;;4.43;;
26951;SDS011;14507;52.418;13.398;2023-02-01T05:36:51;34.40;;;4.35;;
26951;SDS011;14507;52.418;13.398;2023-02-01T05:39:16;32.20;;;4.07;;
26951;SDS011;14507;52.418;13.398;2023-02-01T05:41:42;33.13;;;3.97;;
26951;SDS011;14507;52.418;13.398;2023-02-01T05:44:08;28.52;;;4.22;;
26951;SDS011;14507;52.418;13.398;2023-02-01T05:46:35;30.92;;;4.15;;
26951;SDS011;14507;52.418;13.398;2023-02-01T05:49:00;30.08;;;4.43;;
26951;SDS011;14507;52.418;13.398;2023-02-01T05:51:26;34.67;;;4.50;;
26951;SDS011;14507;52.418;13.398;2023-02-01T05:53:52;26.73;;;4.28;;
26951;SDS011;14507;52.418;13.398;2023-02-01T05:56:17;27.65;;;4.35;;
26951;SDS011;14507;52.418;13.398;2023-02-01T05:58:43;32.08;;;4.93;;
26951;SDS011;14507;52.418;13.398;2023-02-01T06:01:09;26.65;;;3.92;;
26951;SDS011;14507;52.418;13.398;2023-02-01T06:03:35;27.33;;;4.03;;
26951;SDS011;14507;52.418;13.398;2023-02-01T06:06:00;22.88;;;3.60;;
26951;SDS011;14507;52.418;13.398;2023-02-01T06:08:27;24.45;;;4.28;;
26951;SDS011;14507;52.418;13.398;2023-02-01T06:10:59;31.08;;;5.20;;
26951;SDS011;14507;52.418;13.398;2023-02-01T06:13:26;27.38;;;4.72;;
26951;SDS011;14507;52.418;13.398;2023-02-01T06:15:52;27.55;;;4.00;;
26951;SDS011;14507;52.418;13.398;2023-02-01T06:18:18;24.05;;;4.13;;
26951;SDS011;14507;52.418;13.398;2023-02-01T06:20:44;25.77;;;3.80;;
26951;SDS011;14507;52.418;13.398;2023-02-01T06:23:10;29.17;;;3.72;;
26951;SDS011;14507;52.418;13.398;2023-02-01T06:25:35;31.55;;;4.50;;
26951;SDS011;14507;52.418;13.398;2023-02-01T06:28:02;24.48;;;3.95;;
26951;SDS011;14507;52.418;13.398;2023-02-01T06:32:56;35.15;;;5.03;;
26951;SDS011;14507;52.418;13.398;2023-02-01T06:35:22;36.40;;;4.88;;
26951;SDS011;14507;52.418;13.398;2023-02-01T06:37:47;27.23;;;4.25;;
26951;SDS011;14507;52.418;13.398;2023-02-01T06:40:13;21.90;;;3.58;;
26951;SDS011;14507;52.418;13.398;2023-02-01T06:42:39;25.35;;;3.60;;
26951;SDS011;14507;52.418;13.398;2023-02-01T06:45:05;25.88;;;4.03;;
26951;SDS011;14507;52.418;13.398;2023-02-01T06:47:32;24.83;;;3.80;;
26951;SDS011;14507;52.418;13.398;2023-02-01T06:49:57;18.63;;;3.78;;
26951;SDS011;14507;52.418;13.398;2023-02-01T06:52:23;30.55;;;4.07;;
26951;SDS011;14507;52.418;13.398;2023-02-01T06:54:49;27.30;;;4.57;;
26951;SDS011;14507;52.418;13.398;2023-02-01T06:57:14;35.40;;;4.20;;
26951;SDS011;14507;52.418;13.398;2023-02-01T06:59:40;26.48;;;4.10;;
26951;SDS011;14507;52.418;13.398;2023-02-01T07:02:05;31.05;;;4.18;;
26951;SDS011;14507;52.418;13.398;2023-02-01T07:04:34;24.77;;;4.20;;
26951;SDS011;14507;52.418;13.398;2023-02-01T07:06:59;20.58;;;3.75;;
26951;SDS011;14507;52.418;13.398;2023-02-01T07:09:25;19.20;;;3.38;;
26951;SDS011;14507;52.418;13.398;2023-02-01T07:11:50;25.88;;;3.70;;
26951;SDS011;14507;52.418;13.398;2023-02-01T07:14:16;20.27;;;3.92;;
26951;SDS011;14507;52.418;13.398;2023-02-01T07:16:42;31.17;;;4.28;;
26951;SDS011;14507;52.418;13.398;2023-02-01T07:19:07;30.95;;;4.53;;
26951;SDS011;14507;52.418;13.398;2023-02-01T07:21:33;27.30;;;4.05;;
26951;SDS011;14507;52.418;13.398;2023-02-01T07:23:59;23.40;;;3.83;;
26951;SDS011;14507;52.418;13.398;2023-02-01T07:26:24;31.35;;;4.30;;
26951;SDS011;14507;52.418;13.398;2023-02-01T07:28:50;22.75;;;4.20;;
26951;SDS011;14507;52.418;13.398;2023-02-01T07:31:17;24.50;;;4.00;;
26951;SDS011;14507;52.418;13.398;2023-02-01T07:33:45;27.95;;;4.05;;
26951;SDS011;14507;52.418;13.398;2023-02-01T07:36:13;30.77;;;4.45;;
26951;SDS011;14507;52.418;13.398;2023-02-01T07:38:40;24.95;;;4.45;;
26951;SDS011;14507;52.418;13.398;2023-02-01T07:41:06;32.53;;;4.15;;
26951;SDS011;14507;52.418;13.398;2023-02-01T07:43:33;27.90;;;3.95;;
26951;SDS011;14507;52.418;13.398;2023-02-01T07:45:59;24.45;;;4.22;;
26951;SDS011;14507;52.418;13.398;2023-02-01T07:48:25;30.27;;;4.70;;
26951;SDS011;14507;52.418;13.398;2023-02-01T07:50:59;22.90;;;3.58;;
26951;SDS011;14507;52.418;13.398;2023-02-01T07:53:26;24.08;;;4.72;;
26951;SDS011;14507;52.418;13.398;2023-02-01T07:55:53;32.33;;;4.85;;
26951;SDS011;14507;52.418;13.398;2023-02-01T07:58:18;30.73;;;4.15;;
26951;SDS011;14507;52.418;13.398;2023-02-01T08:00:44;18.77;;;4.60;;
26951;SDS011;14507;52.418;13.398;2023-02-01T08:03:28;34.30;;;5.40;;
26951;SDS011;14507;52.418;13.398;2023-02-01T08:05:54;25.27;;;3.90;;
26951;SDS011;14507;52.418;13.398;2023-02-01T08:08:20;20.23;;;3.88;;
26951;SDS011;14507;52.418;13.398;2023-02-01T08:10:46;24.38;;;4.53;;
26951;SDS011;14507;52.418;13.398;2023-02-01T08:13:12;25.77;;;3.85;;
26951;SDS011;14507;52.418;13.398;2023-02-01T08:15:38;24.13;;;4.13;;
26951;SDS011;14507;52.418;13.398;2023-02-01T08:18:03;18.65;;;4.00;;
26951;SDS011;14507;52.418;13.398;2023-02-01T08:20:29;17.20;;;3.55;;
26951;SDS011;14507;52.418;13.398;2023-02-01T08:22:55;20.45;;;4.10;;
26951;SDS011;14507;52.418;13.398;2023-02-01T08:25:21;14.80;;;3.35;;
26951;SDS011;14507;52.418;13.398;2023-02-01T08:27:47;19.85;;;3.53;;
26951;SDS011;14507;52.418;13.398;2023-02-01T08:30:13;14.70;;;3.60;;
26951;SDS011;14507;52.418;13.398;2023-02-01T08:32:39;17.38;;;3.78;;
26951;SDS011;14507;52.418;13.398;2023-02-01T08:35:05;17.08;;;4.00;;
26951;SDS011;14507;52.418;13.398;2023-02-01T08:37:31;20.17;;;4.68;;
26951;SDS011;14507;52.418;13.398;2023-02-01T08:39:57;20.75;;;4.93;;
26951;SDS011;14507;52.418;13.398;2023-02-01T08:42:22;20.05;;;5.28;;
26951;SDS011;14507;52.418;13.398;2023-02-01T08:45:07;16.38;;;4.57;;
26951;SDS011;14507;52.418;13.398;2023-02-01T08:47:34;21.52;;;4.43;;
26951;SDS011;14507;52.418;13.398;2023-02-01T08:50:00;20.23;;;4.75;;
26951;SDS011;14507;52.418;13.398;2023-02-01T08:52:26;18.10;;;4.32;;
26951;SDS011;14507;52.418;13.398;2023-02-01T08:54:51;13.52;;;3.65;;
26951;SDS011;14507;52.418;13.398;2023-02-01T08:57:17;17.67;;;3.28;;
26951;SDS011;14507;52.418;13.398;2023-02-01T08:59:43;15.57;;;3.13;;
26951;SDS011;14507;52.418;13.398;2023-02-01T09:02:12;12.38;;;2.83;;
26951;SDS011;14507;52.418;13.398;2023-02-01T09:04:40;11.30;;;2.63;;
26951;SDS011;14507;52.418;13.398;2023-02-01T09:07:06;11.18;;;2.60;;
26951;SDS011;14507;52.418;13.398;2023-02-01T09:09:33;9.93;;;3.10;;
26951;SDS011;14507;52.418;13.398;2023-02-01T09:11:58;10.10;;;3.33;;
26951;SDS011;14507;52.418;13.398;2023-02-01T09:14:24;7.30;;;1.90;;
26951;SDS011;14507;52.418;13.398;2023-02-01T09:16:50;10.98;;;2.13;;
26951;SDS011;14507;52.418;13.398;2023-02-01T09:19:15;10.95;;;2.00;;
26951;SDS011;14507;52.418;13.398;2023-02-01T09:21:41;6.03;;;1.70;;
26951;SDS011;14507;52.418;13.398;2023-02-01T09:24:08;6.32;;;1.77;;
26951;SDS011;14507;52.418;13.398;2023-02-01T09:26:35;5.97;;;1.88;;
26951;SDS011;14507;52.418;13.398;2023-02-01T09:29:01;8.20;;;1.80;;
26951;SDS011;14507;52.418;13.398;2023-02-01T09:31:28;11.07;;;1.85;;
26951;SDS011;14507;52.418;13.398;2023-02-01T09:33:55;11.48;;;1.90;;
26951;SDS011;14507;52.418;13.398;2023-02-01T09:36:20;7.47;;;1.70;;
26951;SDS011;14507;52.418;13.398;2023-02-01T09:38:48;7.90;;;1.80;;
26951;SDS011;14507;52.418;13.398;2023-02-01T09:41:50;5.43;;;1.70;;
26951;SDS011;14507;52.418;13.398;2023-02-01T09:44:31;13.23;;;1.88;;
26951;SDS011;14507;52.418;13.398;2023-02-01T09:47:13;4.40;;;1.88;;
26951;SDS011;14507;52.418;13.398;2023-02-01T09:49:45;6.15;;;1.88;;
26951;SDS011;14507;52.418;13.398;2023-02-01T09:52:28;7.85;;;1.90;;
26951;SDS011;14507;52.418;13.398;2023-02-01T09:55:10;8.05;;;2.03;;
26951;SDS011;14507;52.418;13.398;2023-02-01T09:58:24;5.43;;;1.73;;
26951;SDS011;14507;52.418;13.398;2023-02-01T10:00:34;7.68;;;2.05;;
26951;SDS011;14507;52.418;13.398;2023-02-01T10:03:02;7.80;;;1.90;;
26951;SDS011;14507;52.418;13.398;2023-02-01T10:10:51;10.32;;;2.33;;
26951;SDS011;14507;52.418;13.398;2023-02-01T10:13:26;9.15;;;2.08;;
26951;SDS011;14507;52.418;13.398;2023-02-01T10:21:36;10.52;;;2.38;;
26951;SDS011;14507;52.418;13.398;2023-02-01T10:27:27;6.40;;;1.70;;
26951;SDS011;14507;52.418;13.398;2023-02-01T10:29:47;7.38;;;1.60;;
26951;SDS011;14507;52.418;13.398;2023-02-01T10:32:24;8.60;;;1.70;;
26951;SDS011;14507;52.418;13.398;2023-02-01T10:34:59;11.02;;;2.53;;
26951;SDS011;14507;52.418;13.398;2023-02-01T10:37:37;9.30;;;1.98;;
26951;SDS011;14507;52.418;13.398;2023-02-01T10:42:59;7.55;;;1.65;;
26951;SDS011;14507;52.418;13.398;2023-02-01T10:45:27;12.65;;;1.90;;
26951;SDS011;14507;52.418;13.398;2023-02-01T10:47:58;9.00;;;2.65;;
26951;SDS011;14507;52.418;13.398;2023-02-01T10:53:15;8.23;;;1.60;;
26951;SDS011;14507;52.418;13.398;2023-02-01T10:58:18;5.80;;;1.50;;
26951;SDS011;14507;52.418;13.398;2023-02-01T11:00:51;8.80;;;1.70;;
26951;SDS011;14507;52.418;13.398;2023-02-01T11:03:41;11.73;;;1.83;;
26951;SDS011;14507;52.418;13.398;2023-02-01T11:11:56;11.25;;;2.70;;
26951;SDS011;14507;52.418;13.398;2023-02-01T11:16:50;19.35;;;2.38;;
26951;SDS011;14507;52.418;13.398;2023-02-01T11:19:18;14.63;;;2.13;;
26951;SDS011;14507;52.418;13.398;2023-02-01T11:21:48;12.35;;;2.75;;
26951;SDS011;14507;52.418;13.398;2023-02-01T11:24:26;16.55;;;2.85;;
26951;SDS011;14507;52.418;13.398;2023-02-01T11:27:01;13.18;;;2.33;;
26951;SDS011;14507;52.418;13.398;2023-02-01T11:29:32;15.90;;;2.42;;
26951;SDS011;14507;52.418;13.398;2023-02-01T11:32:03;10.55;;;2.05;;
26951;SDS011;14507;52.418;13.398;2023-02-01T11:37:17;12.88;;;2.40;;
26951;SDS011;14507;52.418;13.398;2023-02-01T11:39:57;12.55;;;2.47;;
26951;SDS011;14507;52.418;13.398;2023-02-01T11:42:26;16.15;;;2.83;;
26951;SDS011;14507;52.418;13.398;2023-02-01T11:45:07;9.60;;;2.17;;
26951;SDS011;14507;52.418;13.398;2023-02-01T11:47:44;7.95;;;1.73;;
26951;SDS011;14507;52.418;13.398;2023-02-01T11:53:09;11.30;;;2.10;;
26951;SDS011;14507;52.418;13.398;2023-02-01T11:55:48;18.52;;;2.58;;
26951;SDS011;14507;52.418;13.398;2023-02-01T12:06:48;12.73;;;1.92;;
26951;SDS011;14507;52.418;13.398;2023-02-01T12:22:48;8.90;;;2.10;;
26951;SDS011;14507;52.418;13.398;2023-02-01T12:28:00;14.00;;;2.50;;
26951;SDS011;14507;52.418;13.398;2023-02-01T12:30:52;12.80;;;2.53;;
26951;SDS011;14507;52.418;13.398;2023-02-01T12:39:32;15.50;;;2.88;;
26951;SDS011;14507;52.418;13.398;2023-02-01T12:47:23;13.00;;;2.55;;
26951;SDS011;14507;52.418;13.398;2023-02-01T12:50:03;14.88;;;2.28;;
26951;SDS011;14507;52.418;13.398;2023-02-01T12:52:38;9.23;;;2.13;;
26951;SDS011;14507;52.418;13.398;2023-02-01T12:57:40;13.52;;;2.40;;
26951;SDS011;14507;52.418;13.398;2023-02-01T13:00:17;15.30;;;2.45;;
26951;SDS011;14507;52.418;13.398;2023-02-01T13:11:16;16.90;;;2.55;;
26951;SDS011;14507;52.418;13.398;2023-02-01T13:16:37;7.82;;;1.83;;
26951;SDS011;14507;52.418;13.398;2023-02-01T13:19:29;9.70;;;1.88;;
26951;SDS011;14507;52.418;13.398;2023-02-01T13:22:06;14.48;;;2.25;;
26951;SDS011;14507;52.418;13.398;2023-02-01T13:25:16;7.32;;;1.80;;
26951;SDS011;14507;52.418;13.398;2023-02-01T13:28:06;10.40;;;1.98;;
26951;SDS011;14507;52.418;13.398;2023-02-01T13:42:11;18.52;;;2.88;;
26951;SDS011;14507;52.418;13.398;2023-02-01T13:49:56;14.82;;;2.13;;
26951;SDS011;14507;52.418;13.398;2023-02-01T13:52:26;18.27;;;2.90;;
26951;SDS011;14507;52.418;13.398;2023-02-01T13:55:15;12.77;;;2.70;;
26951;SDS011;14507;52.418;13.398;2023-02-01T13:57:50;15.38;;;2.75;;
26951;SDS011;14507;52.418;13.398;2023-02-01T14:00:34;14.00;;;3.33;;
26951;SDS011;14507;52.418;13.398;2023-02-01T14:26:20;18.00;;;3.17;;
26951;SDS011;14507;52.418;13.398;2023-02-01T14:34:05;18.67;;;5.32;;
26951;SDS011;14507;52.418;13.398;2023-02-01T14:36:57;20.05;;;5.47;;
26951;SDS011;14507;52.418;13.398;2023-02-01T14:39:30;23.45;;;6.28;;
26951;SDS011;14507;52.418;13.398;2023-02-01T14:41:58;24.70;;;5.38;;
26951;SDS011;14507;52.418;13.398;2023-02-01T14:44:29;19.08;;;5.40;;
26951;SDS011;14507;52.418;13.398;2023-02-01T14:47:08;25.35;;;4.53;;
26951;SDS011;14507;52.418;13.398;2023-02-01T14:49:55;24.33;;;5.60;;
26951;SDS011;14507;52.418;13.398;2023-02-01T14:52:30;33.25;;;9.88;;
26951;SDS011;14507;52.418;13.398;2023-02-01T14:55:01;22.65;;;3.55;;
26951;SDS011;14507;52.418;13.398;2023-02-01T14:57:31;24.13;;;6.30;;
26951;SDS011;14507;52.418;13.398;2023-02-01T15:00:23;17.80;;;3.45;;
26951;SDS011;14507;52.418;13.398;2023-02-01T15:02:51;23.13;;;7.82;;
26951;SDS011;14507;52.418;13.398;2023-02-01T15:05:22;19.23;;;5.43;;
26951;SDS011;14507;52.418;13.398;2023-02-01T15:07:56;19.23;;;3.53;;
26951;SDS011;14507;52.418;13.398;2023-02-01T15:10:29;22.65;;;7.78;;
26951;SDS011;14507;52.418;13.398;2023-02-01T15:12:58;13.73;;;3.88;;
26951;SDS011;14507;52.418;13.398;2023-02-01T15:15:24;16.13;;;2.92;;
26951;SDS011;14507;52.418;13.398;2023-02-01T15:17:51;26.77;;;9.13;;
26951;SDS011;14507;52.418;13.398;2023-02-01T15:22:58;8.70;;;2.35;;
26951;SDS011;14507;52.418;13.398;2023-02-01T15:25:27;8.48;;;2.00;;
26951;SDS011;14507;52.418;13.398;2023-02-01T15:27:55;10.48;;;1.92;;
26951;SDS011;14507;52.418;13.398;2023-02-01T15:30:26;12.52;;;2.30;;
26951;SDS011;14507;52.418;13.398;2023-02-01T15:35:45;9.60;;;2.17;;
26951;SDS011;14507;52.418;13.398;2023-02-01T15:43:25;11.27;;;2.08;;
26951;SDS011;14507;52.418;13.398;2023-02-01T15:45:51;6.28;;;1.92;;
26951;SDS011;14507;52.418;13.398;2023-02-01T15:48:22;10.18;;;2.80;;
26951;SDS011;14507;52.418;13.398;2023-02-01T15:50:50;6.05;;;2.40;;
26951;SDS011;14507;52.418;13.398;2023-02-01T15:53:20;7.85;;;2.40;;
26951;SDS011;14507;52.418;13.398;2023-02-01T15:55:51;6.55;;;2.70;;
26951;SDS011;14507;52.418;13.398;2023-02-01T15:58:20;12.80;;;2.83;;
26951;SDS011;14507;52.418;13.398;2023-02-01T16:00:50;6.15;;;2.17;;
26951;SDS011;14507;52.418;13.398;2023-02-01T16:06:08;6.90;;;2.30;;
26951;SDS011;14507;52.418;13.398;2023-02-01T16:11:33;4.18;;;1.60;;
26951;SDS011;14507;52.418;13.398;2023-02-01T16:14:14;8.77;;;1.90;;
26951;SDS011;14507;52.418;13.398;2023-02-01T16:16:40;5.50;;;1.70;;
26951;SDS011;14507;52.418;13.398;2023-02-01T16:19:06;6.07;;;1.90;;
26951;SDS011;14507;52.418;13.398;2023-02-01T16:21:31;4.07;;;1.40;;
26951;SDS011;14507;52.418;13.398;2023-02-01T16:23:57;4.38;;;1.30;;
26951;SDS011;14507;52.418;13.398;2023-02-01T16:26:28;3.20;;;1.10;;
26951;SDS011;14507;52.418;13.398;2023-02-01T16:28:55;2.60;;;1.33;;
26951;SDS011;14507;52.418;13.398;2023-02-01T16:31:21;2.05;;;0.80;;
26951;SDS011;14507;52.418;13.398;2023-02-01T16:33:53;1.25;;;0.82;;
26951;SDS011;14507;52.418;13.398;2023-02-01T16:36:18;2.00;;;0.82;;
26951;SDS011;14507;52.418;13.398;2023-02-01T16:38:45;2.78;;;1.20;;
26951;SDS011;14507;52.418;13.398;2023-02-01T16:41:15;2.90;;;1.00;;
26951;SDS011;14507;52.418;13.398;2023-02-01T16:46:15;2.83;;;1.20;;
26951;SDS011;14507;52.418;13.398;2023-02-01T16:48:45;2.75;;;1.25;;
26951;SDS011;14507;52.418;13.398;2023-02-01T16:51:15;3.00;;;1.10;;
26951;SDS011;14507;52.418;13.398;2023-02-01T16:53:42;3.15;;;1.25;;
26951;SDS011;14507;52.418;13.398;2023-02-01T16:56:16;2.03;;;0.90;;
26951;SDS011;14507;52.418;13.398;2023-02-01T16:58:46;1.98;;;0.85;;
26951;SDS011;14507;52.418;13.398;2023-02-01T17:01:13;5.85;;;0.93;;
26951;SDS011;14507;52.418;13.398;2023-02-01T17:03:40;4.60;;;1.38;;
26951;SDS011;14507;52.418;13.398;2023-02-01T17:06:08;3.13;;;1.50;;
26951;SDS011;14507;52.418;13.398;2023-02-01T17:08:37;3.58;;;1.40;;
26951;SDS011;14507;52.418;13.398;2023-02-01T17:11:06;9.07;;;2.20;;
26951;SDS011;14507;52.418;13.398;2023-02-01T17:13:32;5.35;;;1.95;;
26951;SDS011;14507;52.418;13.398;2023-02-01T17:18:42;4.18;;;1.67;;
26951;SDS011;14507;52.418;13.398;2023-02-01T17:21:09;5.60;;;1.58;;
26951;SDS011;14507;52.418;13.398;2023-02-01T17:23:35;2.88;;;1.30;;
26951;SDS011;14507;52.418;13.398;2023-02-01T17:26:01;8.73;;;1.58;;
26951;SDS011;14507;52.418;13.398;2023-02-01T17:28:27;4.63;;;1.30;;
26951;SDS011;14507;52.418;13.398;2023-02-01T17:30:53;5.00;;;1.60;;
26951;SDS011;14507;52.418;13.398;2023-02-01T17:33:24;8.52;;;2.20;;
26951;SDS011;14507;52.418;13.398;2023-02-01T17:35:53;6.50;;;1.25;;
26951;SDS011;14507;52.418;13.398;2023-02-01T17:38:20;4.60;;;1.80;;
26951;SDS011;14507;52.418;13.398;2023-02-01T17:40:46;6.10;;;1.60;;
26951;SDS011;14507;52.418;13.398;2023-02-01T17:43:20;9.48;;;1.77;;
26951;SDS011;14507;52.418;13.398;2023-02-01T17:48:50;11.90;;;2.08;;
26951;SDS011;14507;52.418;13.398;2023-02-01T17:51:21;8.30;;;2.22;;